Terminal Aerodrome Forecast
Issued by NWS Raleigh/Durham, NC

Home | Current Version | Previous Version | Text Only | Print | Product List | Glossary On
Versions: 1 2 3 4 5 6 7 8 9 10 11 12 13 14 15 16 17 18 19 20 21 22 23 24 25 26 27 28 29 30 31 32 33
000
FTUS42 KRAH 012346 CCA
TAFFAY
TAF COR
KFAY 012346Z 0200/0224 16010KT P6SM BKN120
      TEMPO 0204/0208 18012G18KT 6SM -SHRA BKN007 OVC012
     FM020800 20012G20KT 3SM -SHRA OVC012
      TEMPO 0213/0217 24015G25KT BKN020
     FM021700 28020G30KT P6SM SCT035=

USA.gov is the U.S. government's official web portal to all federal, state and local government web resources and services.